createdAt,value
2018-03-01T00:00:36.633Z,55.30
2018-03-01T00:01:36.814Z,55.49
2018-03-01T00:02:36.971Z,55.30
2018-03-01T00:03:37.139Z,55.49
2018-03-01T00:04:37.319Z,55.68
2018-03-01T00:05:37.485Z,55.21
2018-03-01T00:06:37.662Z,55.21
2018-03-01T00:07:37.823Z,55.59
2018-03-01T00:08:37.989Z,55.59
2018-03-01T00:09:38.154Z,55.21
2018-03-01T00:10:38.324Z,55.21
2018-03-01T00:11:38.524Z,55.30
2018-03-01T00:12:38.659Z,55.30
2018-03-01T00:13:38.825Z,55.30
2018-03-01T00:14:38.994Z,55.21
2018-03-01T00:15:39.153Z,55.02
2018-03-01T00:16:39.323Z,54.93
2018-03-01T00:17:39.754Z,55.21
2018-03-01T00:18:39.672Z,55.02
2018-03-01T00:19:39.830Z,55.11
2018-03-01T00:20:39.997Z,55.30
2018-03-01T00:21:40.167Z,55.68
2018-03-01T00:22:40.338Z,55.30
2018-03-01T00:23:40.506Z,55.59
2018-03-01T00:24:40.678Z,55.21
2018-03-01T00:25:40.843Z,55.30
2018-03-01T00:26:41.009Z,55.30
2018-03-01T00:27:41.178Z,55.75
2018-03-01T00:28:41.348Z,56.06
2018-03-01T00:29:41.526Z,56.15
2018-03-01T00:30:41.964Z,55.68
2018-03-01T00:31:41.846Z,55.21
2018-03-01T00:32:42.024Z,55.40
2018-03-01T00:33:42.166Z,55.02
2018-03-01T00:34:42.340Z,55.11
2018-03-01T00:35:42.519Z,55.11
2018-03-01T00:36:42.672Z,55.30
2018-03-01T00:37:42.847Z,54.93
2018-03-01T00:38:43.008Z,55.02
2018-03-01T00:39:43.176Z,55.11
2018-03-01T00:40:43.345Z,55.02
2018-03-01T00:41:43.516Z,55.02
2018-03-01T00:42:43.681Z,55.59
2018-03-01T00:43:43.862Z,55.30
2018-03-01T00:44:44.030Z,55.21
2018-03-01T00:45:44.191Z,55.40
2018-03-01T00:46:44.361Z,55.49
2018-03-01T00:47:44.530Z,55.30
2018-03-01T00:48:44.700Z,54.93
2018-03-01T00:49:44.865Z,55.02
2018-03-01T00:50:45.031Z,55.30
2018-03-01T00:51:45.199Z,55.11
2018-03-01T00:52:45.368Z,55.30
2018-03-01T00:53:45.545Z,55.11
2018-03-01T00:54:45.711Z,55.21
2018-03-01T00:55:45.875Z,55.59
2018-03-01T00:56:46.050Z,55.59
2018-03-01T00:57:46.208Z,55.59
2018-03-01T00:58:46.373Z,55.40
2018-03-01T00:59:46.542Z,55.21
2018-03-01T01:00:46.713Z,55.40
2018-03-01T01:01:46.887Z,55.40
2018-03-01T01:02:47.046Z,55.68
2018-03-01T01:03:47.224Z,55.30
2018-03-01T01:04:47.382Z,55.49
2018-03-01T01:05:47.554Z,55.30
2018-03-01T01:06:47.716Z,55.49
2018-03-01T01:07:47.883Z,55.40
2018-03-01T01:08:48.057Z,55.30
2018-03-01T01:09:48.220Z,55.11
2018-03-01T01:10:48.391Z,55.02
2018-03-01T01:11:48.556Z,55.40
2018-03-01T01:12:48.723Z,55.59
2018-03-01T01:13:48.895Z,55.49
2018-03-01T01:14:49.062Z,55.30
2018-03-01T01:15:49.231Z,55.59
2018-03-01T01:16:49.394Z,55.21
2018-03-01T01:17:49.564Z,55.59
2018-03-01T01:18:49.735Z,55.21
2018-03-01T01:19:49.900Z,55.59
2018-03-01T01:20:50.075Z,55.87
2018-03-01T01:21:50.243Z,55.78
2018-03-01T01:22:50.420Z,56.06
2018-03-01T01:23:50.571Z,56.15
2018-03-01T01:24:50.739Z,56.15
2018-03-01T01:25:50.902Z,56.25
2018-03-01T01:26:51.072Z,56.06
2018-03-01T01:27:51.240Z,55.49
2018-03-01T01:28:51.411Z,55.30
2018-03-01T01:29:51.577Z,55.21
2018-03-01T01:30:51.746Z,55.40
2018-03-01T01:31:51.914Z,55.68
2018-03-01T01:32:52.081Z,55.78
2018-03-01T01:33:52.248Z,56.06
2018-03-01T01:34:52.417Z,56.15
2018-03-01T01:35:52.585Z,55.68
2018-03-01T01:36:52.754Z,56.15
2018-03-01T01:37:52.929Z,56.06
2018-03-01T01:38:53.111Z,55.87
2018-03-01T01:39:53.252Z,56.15
2018-03-01T01:40:53.420Z,55.68
2018-03-01T01:42:53.747Z,55.68
2018-03-01T01:43:53.926Z,56.15
2018-03-01T01:44:54.085Z,56.06
2018-03-01T01:45:54.256Z,56.06
2018-03-01T01:46:54.427Z,55.78
2018-03-01T01:47:54.592Z,56.06
2018-03-01T01:48:54.756Z,55.59
2018-03-01T01:49:54.924Z,55.49
2018-03-01T01:50:55.098Z,56.06
2018-03-01T01:51:55.517Z,55.96
2018-03-01T01:52:55.429Z,55.59
2018-03-01T01:53:55.597Z,55.49
2018-03-01T01:54:55.768Z,55.68
2018-03-01T01:55:55.934Z,55.96
2018-03-01T01:56:56.101Z,56.15
2018-03-01T01:57:56.270Z,55.49
2018-03-01T01:58:56.446Z,56.06
2018-03-01T01:59:56.608Z,55.68
2018-03-01T02:00:56.779Z,55.78
2018-03-01T02:01:56.945Z,56.15
2018-03-01T02:02:57.113Z,55.96
2018-03-01T02:03:57.277Z,56.06
2018-03-01T02:04:57.451Z,56.06
2018-03-01T02:05:57.615Z,56.03
2018-03-01T02:06:57.788Z,56.03
2018-03-01T02:07:57.963Z,56.15
2018-03-01T02:08:58.129Z,56.15
2018-03-01T02:09:58.293Z,56.06
2018-03-01T02:10:58.465Z,56.06
2018-03-01T02:11:58.632Z,56.15
2018-03-01T02:12:58.801Z,56.25
2018-03-01T02:13:58.960Z,55.96
2018-03-01T02:14:59.153Z,56.25
2018-03-01T02:15:59.308Z,56.34
2018-03-01T02:16:59.476Z,55.96
2018-03-01T02:17:59.888Z,56.50
2018-03-01T02:18:59.799Z,56.34
2018-03-01T02:19:59.976Z,56.44
2018-03-01T02:21:00.145Z,57.29
2018-03-01T02:22:00.309Z,57.19
2018-03-01T02:23:00.479Z,57.00
2018-03-01T02:24:00.651Z,57.10
2018-03-01T02:25:00.814Z,57.07
2018-03-01T02:26:00.981Z,57.10
2018-03-01T02:27:01.146Z,57.16
2018-03-01T02:28:01.319Z,57.00
2018-03-01T02:29:01.480Z,57.10
2018-03-01T02:30:01.652Z,56.62
2018-03-01T02:31:01.909Z,56.81
2018-03-01T02:32:01.985Z,56.62
2018-03-01T02:33:02.152Z,56.53
2018-03-01T02:34:02.328Z,56.44
2018-03-01T02:35:02.502Z,56.81
2018-03-01T02:36:02.660Z,56.34
2018-03-01T02:37:02.827Z,55.96
2018-03-01T02:38:03.003Z,56.06
2018-03-01T02:39:03.195Z,55.96
2018-03-01T02:40:03.330Z,56.15
2018-03-01T02:41:03.498Z,56.15
2018-03-01T02:42:03.661Z,56.15
2018-03-01T02:43:03.827Z,56.25
2018-03-01T02:44:03.998Z,56.15
2018-03-01T02:45:04.166Z,56.44
2018-03-01T02:46:04.331Z,56.50
2018-03-01T02:47:04.502Z,55.94
2018-03-01T02:48:04.664Z,56.41
2018-03-01T02:49:04.839Z,56.50
2018-03-01T02:50:05.008Z,56.97
2018-03-01T02:51:05.177Z,57.66
2018-03-01T02:52:05.346Z,57.66
2018-03-01T02:53:05.511Z,56.91
2018-03-01T02:54:05.677Z,56.97
2018-03-01T02:55:05.850Z,56.97
2018-03-01T02:56:06.009Z,57.07
2018-03-01T02:57:06.183Z,57.16
2018-03-01T02:58:06.349Z,56.88
2018-03-01T02:59:06.526Z,56.88
2018-03-01T03:00:06.691Z,57.07
2018-03-01T03:01:06.857Z,57.45
2018-03-01T03:02:07.031Z,57.45
2018-03-01T03:03:07.196Z,57.35
2018-03-01T03:04:07.366Z,57.07
2018-03-01T03:05:07.535Z,57.16
2018-03-01T03:06:07.698Z,57.00
2018-03-01T03:07:07.871Z,57.10
2018-03-01T03:08:08.040Z,56.97
2018-03-01T03:09:08.206Z,57.29
2018-03-01T03:10:08.375Z,56.81
2018-03-01T03:11:08.548Z,57.00
2018-03-01T03:12:08.714Z,56.41
2018-03-01T03:13:08.873Z,56.50
2018-03-01T03:14:09.047Z,56.69
2018-03-01T03:15:09.217Z,56.88
2018-03-01T03:16:09.387Z,57.54
2018-03-01T03:17:09.555Z,57.26
2018-03-01T03:18:09.724Z,57.54
2018-03-01T03:19:09.888Z,57.57
2018-03-01T03:20:10.054Z,57.10
2018-03-01T03:21:10.222Z,56.81
2018-03-01T03:22:10.393Z,56.62
2018-03-01T03:23:10.565Z,57.00
2018-03-01T03:24:10.724Z,57.38
2018-03-01T03:25:10.899Z,56.81
2018-03-01T03:26:11.059Z,56.72
2018-03-01T03:27:11.232Z,57.29
2018-03-01T03:28:11.396Z,56.97
2018-03-01T03:29:11.570Z,57.35
2018-03-01T03:30:11.740Z,56.88
2018-03-01T03:31:11.906Z,57.16
2018-03-01T03:32:12.076Z,57.47
2018-03-01T03:33:12.495Z,57.45
2018-03-01T03:34:12.412Z,57.57
2018-03-01T03:35:12.579Z,56.81
2018-03-01T03:36:12.745Z,56.91
2018-03-01T03:37:12.915Z,57.00
2018-03-01T03:38:13.088Z,57.19
2018-03-01T03:39:13.252Z,56.62
2018-03-01T03:40:13.426Z,56.62
2018-03-01T03:41:13.589Z,56.41
2018-03-01T03:42:13.754Z,56.60
2018-03-01T03:43:13.922Z,56.97
2018-03-01T03:44:14.093Z,57.07
2018-03-01T03:45:14.259Z,56.88
2018-03-01T03:46:14.423Z,57.07
2018-03-01T03:47:14.599Z,56.97
2018-03-01T03:48:14.765Z,57.07
2018-03-01T03:49:14.929Z,57.07
2018-03-01T03:50:15.103Z,57.45
2018-03-01T03:51:15.262Z,57.54
2018-03-01T03:52:15.433Z,57.07
2018-03-01T03:53:15.601Z,56.88
2018-03-01T03:54:15.773Z,56.97
2018-03-01T03:55:15.948Z,57.07
2018-03-01T03:56:16.105Z,56.88
2018-03-01T03:57:16.277Z,56.88
2018-03-01T03:58:16.447Z,57.54
2018-03-01T03:59:16.613Z,56.97
2018-03-01T04:00:16.781Z,56.88
2018-03-01T04:01:16.945Z,56.97
2018-03-01T04:02:17.114Z,56.97
2018-03-01T04:03:17.283Z,56.97
2018-03-01T04:04:17.450Z,57.16
2018-03-01T04:05:17.619Z,57.16
2018-03-01T04:06:17.787Z,57.45
2018-03-01T04:07:17.948Z,57.35
2018-03-01T04:08:18.120Z,57.16
2018-03-01T04:09:18.283Z,57.47
2018-03-01T04:10:18.456Z,57.63
2018-03-01T04:11:18.623Z,57.10
2018-03-01T04:12:18.797Z,57.26
2018-03-01T04:13:18.958Z,57.35
2018-03-01T04:14:19.128Z,56.50
2018-03-01T04:15:19.300Z,56.60
2018-03-01T04:16:19.457Z,57.07
2018-03-01T04:17:19.626Z,56.97
2018-03-01T04:18:19.825Z,57.54
2018-03-01T04:19:19.954Z,57.16
2018-03-01T04:20:20.123Z,57.16
2018-03-01T04:21:20.300Z,57.73
2018-03-01T04:22:20.463Z,57.35
2018-03-01T04:23:20.634Z,57.35
2018-03-01T04:24:20.802Z,57.35
2018-03-01T04:25:20.970Z,57.35
2018-03-01T04:26:21.135Z,57.54
2018-03-01T04:27:21.301Z,57.16
2018-03-01T04:28:21.479Z,57.63
2018-03-01T04:29:21.634Z,57.54
2018-03-01T04:30:21.801Z,58.39
2018-03-01T04:31:21.974Z,58.01
2018-03-01T04:32:22.137Z,58.20
2018-03-01T04:33:22.310Z,58.58
2018-03-01T04:34:22.474Z,58.58
2018-03-01T04:35:22.640Z,58.29
2018-03-01T04:36:22.817Z,58.67
2018-03-01T04:37:22.982Z,58.95
2018-03-01T04:38:23.156Z,58.95
2018-03-01T04:39:23.318Z,59.05
2018-03-01T04:40:23.494Z,58.58
2018-03-01T04:41:23.659Z,58.39
2018-03-01T04:42:23.821Z,58.48
2018-03-01T04:43:23.990Z,58.39
2018-03-01T04:44:24.154Z,58.48
2018-03-01T04:45:24.324Z,58.58
2018-03-01T04:46:24.492Z,59.23
2018-03-01T04:47:24.657Z,58.67
2018-03-01T04:48:24.830Z,58.48
2018-03-01T04:49:24.996Z,58.48
2018-03-01T04:50:25.171Z,58.48
2018-03-01T04:51:25.340Z,58.76
2018-03-01T04:52:25.504Z,58.76
2018-03-01T04:53:25.673Z,58.39
2018-03-01T04:54:25.847Z,58.39
2018-03-01T04:55:26.008Z,58.48
2018-03-01T04:56:26.177Z,57.54
2018-03-01T04:57:26.347Z,58.48
2018-03-01T04:58:26.513Z,58.11
2018-03-01T04:59:26.682Z,58.20
2018-03-01T05:00:26.849Z,58.48
2018-03-01T05:01:27.018Z,58.20
2018-03-01T05:02:27.181Z,58.29
2018-03-01T05:03:27.344Z,58.01
2018-03-01T05:04:27.522Z,58.11
2018-03-01T05:05:27.683Z,57.92
2018-03-01T05:06:27.851Z,58.20
2018-03-01T05:07:28.020Z,58.01
2018-03-01T05:08:28.190Z,57.73
2018-03-01T05:09:28.363Z,57.73
2018-03-01T05:10:28.515Z,57.63
2018-03-01T05:11:28.695Z,58.20
2018-03-01T05:12:28.865Z,58.11
2018-03-01T05:13:29.042Z,58.29
2018-03-01T05:14:29.215Z,58.58
2018-03-01T05:15:29.363Z,58.20
2018-03-01T05:16:29.530Z,58.11
2018-03-01T05:17:29.699Z,58.39
2018-03-01T05:18:29.868Z,58.86
2018-03-01T05:19:30.049Z,58.39
2018-03-01T05:20:30.205Z,58.48
2018-03-01T05:21:30.373Z,58.95
2018-03-01T05:22:30.538Z,58.58
2018-03-01T05:23:30.711Z,58.76
2018-03-01T05:24:30.887Z,58.86
2018-03-01T05:25:31.049Z,58.95
2018-03-01T05:26:31.226Z,58.76
2018-03-01T05:27:31.388Z,59.42
2018-03-01T05:28:31.550Z,59.42
2018-03-01T05:29:31.718Z,59.05
2018-03-01T05:30:31.893Z,59.14
2018-03-01T05:31:32.064Z,59.23
2018-03-01T05:32:32.225Z,59.42
2018-03-01T05:33:32.393Z,58.39
2018-03-01T05:34:32.568Z,59.42
2018-03-01T05:35:32.731Z,59.42
2018-03-01T05:36:32.885Z,58.86
2018-03-01T05:37:33.051Z,59.52
2018-03-01T05:38:33.218Z,59.33
2018-03-01T05:39:33.408Z,59.42
2018-03-01T05:40:33.561Z,59.33
2018-03-01T05:41:33.763Z,59.05
2018-03-01T05:42:33.909Z,58.76
2018-03-01T05:43:34.078Z,58.58
2018-03-01T05:44:34.240Z,58.58
2018-03-01T05:45:34.445Z,58.58
2018-03-01T05:46:34.605Z,58.48
2018-03-01T05:47:34.839Z,58.58
2018-03-01T05:48:34.941Z,59.42
2018-03-01T05:49:35.132Z,59.42
2018-03-01T05:50:35.289Z,59.14
2018-03-01T05:51:35.459Z,59.42
2018-03-01T05:52:35.631Z,59.80
2018-03-01T05:53:35.795Z,59.80
2018-03-01T05:54:35.953Z,59.52
2018-03-01T05:55:36.124Z,59.42
2018-03-01T05:56:36.292Z,59.52
2018-03-01T05:57:36.460Z,59.52
2018-03-01T05:58:36.629Z,59.52
2018-03-01T05:59:36.799Z,59.52
2018-03-01T06:00:36.980Z,59.80
2018-03-01T06:01:37.142Z,59.42
2018-03-01T06:02:37.362Z,59.80
2018-03-01T06:03:37.488Z,59.23
2018-03-01T06:04:37.642Z,59.61
2018-03-01T06:05:37.813Z,59.52
2018-03-01T06:06:37.984Z,59.42
2018-03-01T06:07:38.157Z,59.70
2018-03-01T06:08:38.325Z,59.42
2018-03-01T06:09:38.485Z,59.80
2018-03-01T06:10:38.674Z,59.61
2018-03-01T06:11:38.816Z,59.89
2018-03-01T06:12:38.987Z,59.89
2018-03-01T06:13:39.152Z,59.89
2018-03-01T06:14:39.321Z,59.89
2018-03-01T06:15:39.496Z,59.89
2018-03-01T06:16:39.668Z,60.17
2018-03-01T06:17:39.868Z,60.17
2018-03-01T06:18:39.976Z,60.27
2018-03-01T06:19:40.143Z,60.17
2018-03-01T06:20:40.313Z,59.61
2018-03-01T06:21:40.483Z,59.80
2018-03-01T06:22:40.649Z,60.46
2018-03-01T06:23:40.830Z,60.08
2018-03-01T06:24:40.996Z,60.36
2018-03-01T06:25:41.181Z,59.99
2018-03-01T06:26:41.348Z,60.17
2018-03-01T06:27:41.529Z,60.27
2018-03-01T06:28:41.686Z,60.27
2018-03-01T06:29:41.855Z,60.36
2018-03-01T06:30:42.030Z,59.61
2018-03-01T06:31:42.180Z,59.99
2018-03-01T06:32:42.352Z,59.89
2018-03-01T06:33:42.517Z,59.52
2018-03-01T06:34:42.671Z,60.17
2018-03-01T06:35:42.851Z,60.74
2018-03-01T06:36:43.016Z,59.80
2018-03-01T06:37:43.187Z,59.52
2018-03-01T06:38:43.350Z,59.89
2018-03-01T06:39:43.530Z,59.70
2018-03-01T06:40:43.694Z,59.99
2018-03-01T06:41:43.862Z,59.52
2018-03-01T06:42:44.039Z,59.61
2018-03-01T06:43:44.201Z,59.42
2018-03-01T06:44:44.370Z,59.70
2018-03-01T06:45:44.525Z,59.61
2018-03-01T06:46:44.703Z,59.23
2018-03-01T06:47:44.865Z,59.61
2018-03-01T06:49:45.201Z,59.23
2018-03-01T06:50:45.379Z,59.05
2018-03-01T06:51:45.539Z,59.05
2018-03-01T06:52:45.723Z,59.33
2018-03-01T06:53:45.858Z,59.14
2018-03-01T06:54:46.031Z,59.05
2018-03-01T06:55:46.185Z,58.39
2018-03-01T06:56:46.359Z,58.39
2018-03-01T06:57:46.521Z,58.42
2018-03-01T06:58:46.687Z,58.89
2018-03-01T06:59:46.858Z,58.42
2018-03-01T07:00:47.023Z,58.32
2018-03-01T07:01:47.198Z,58.13
2018-03-01T07:02:47.362Z,58.42
2018-03-01T07:03:47.534Z,58.13
2018-03-01T07:05:47.872Z,58.20
2018-03-01T07:06:48.031Z,58.13
2018-03-01T07:07:48.200Z,58.13
2018-03-01T07:08:48.371Z,58.13
2018-03-01T07:09:48.553Z,58.23
2018-03-01T07:10:48.720Z,57.73
2018-03-01T07:11:48.881Z,57.95
2018-03-01T07:12:49.064Z,58.23
2018-03-01T07:13:49.232Z,57.66
2018-03-01T07:14:49.809Z,58.04
2018-03-01T07:15:49.573Z,58.13
2018-03-01T07:16:49.734Z,58.13
2018-03-01T07:18:50.073Z,58.13
2018-03-01T07:19:50.244Z,58.61
2018-03-01T07:20:50.406Z,57.76
2018-03-01T07:21:50.580Z,57.66
2018-03-01T07:22:50.767Z,57.47
2018-03-01T07:24:51.084Z,57.29
2018-03-01T07:25:51.249Z,57.29
2018-03-01T07:26:51.424Z,56.53
2018-03-01T07:27:51.600Z,56.15
2018-03-01T07:28:51.763Z,55.87
2018-03-01T07:29:51.928Z,55.68
2018-03-01T07:30:52.093Z,54.93
2018-03-01T07:31:52.259Z,54.64
2018-03-01T07:32:52.426Z,55.02
2018-03-01T07:33:52.603Z,54.36
2018-03-01T07:34:52.769Z,54.27
2018-03-01T07:35:52.934Z,54.02
2018-03-01T07:36:53.102Z,53.64
2018-03-01T07:37:53.256Z,53.52
2018-03-01T07:38:53.429Z,53.45
2018-03-01T07:39:53.600Z,53.80
2018-03-01T07:40:53.875Z,53.14
2018-03-01T07:41:53.965Z,53.52
2018-03-01T07:42:54.127Z,53.52
2018-03-01T07:43:54.290Z,53.52
2018-03-01T07:44:54.453Z,54.17
2018-03-01T07:45:54.626Z,54.08
2018-03-01T07:46:54.789Z,53.73
2018-03-01T07:47:54.990Z,53.52
2018-03-01T07:48:55.140Z,53.52
2018-03-01T07:49:55.315Z,53.36
2018-03-01T07:50:55.483Z,53.61
2018-03-01T07:51:55.648Z,53.61
2018-03-01T07:52:55.815Z,53.42
2018-03-01T07:53:55.992Z,53.99
2018-03-01T07:54:56.151Z,54.08
2018-03-01T07:55:56.315Z,54.08
2018-03-01T07:56:56.487Z,53.64
2018-03-01T07:57:56.667Z,52.51
2018-03-01T07:58:56.832Z,52.10
2018-03-01T07:59:56.993Z,52.29
2018-03-01T08:00:57.162Z,52.76
2018-03-01T08:01:57.325Z,52.88
2018-03-01T08:02:57.510Z,52.22
2018-03-01T08:03:57.683Z,51.94
2018-03-01T08:04:57.850Z,51.47
2018-03-01T08:05:58.021Z,51.18
2018-03-01T08:06:58.203Z,50.99
2018-03-01T08:07:58.359Z,50.62
2018-03-01T08:08:58.528Z,49.87
2018-03-01T08:09:58.692Z,49.96
2018-03-01T08:10:58.860Z,49.68
2018-03-01T08:11:59.034Z,49.58
2018-03-01T08:12:59.197Z,49.21
2018-03-01T08:13:59.368Z,49.21
2018-03-01T08:14:59.536Z,49.11
2018-03-01T08:15:59.706Z,49.11
2018-03-01T08:16:59.886Z,48.74
2018-03-01T08:18:00.062Z,48.17
2018-03-01T08:19:00.219Z,48.17
2018-03-01T08:20:00.394Z,48.27
2018-03-01T08:21:00.559Z,47.70
2018-03-01T08:22:00.728Z,47.91
2018-03-01T08:23:00.900Z,47.34
2018-03-01T08:24:01.069Z,46.69
2018-03-01T08:25:01.252Z,45.93
2018-03-01T08:26:01.403Z,45.74
2018-03-01T08:27:01.575Z,45.74
2018-03-01T08:28:01.752Z,45.84
2018-03-01T08:29:01.913Z,45.93
2018-03-01T08:30:02.082Z,45.74
2018-03-01T08:31:02.257Z,45.36
2018-03-01T08:32:02.427Z,44.89
2018-03-01T08:33:02.597Z,44.23
2018-03-01T08:34:02.770Z,44.14
2018-03-01T08:35:02.948Z,44.14
2018-03-01T08:36:03.119Z,44.70
2018-03-01T08:37:03.290Z,45.18
2018-03-01T08:38:03.460Z,45.08
2018-03-01T08:39:03.651Z,45.08
2018-03-01T08:40:04.053Z,44.99
2018-03-01T08:41:03.972Z,45.55
2018-03-01T08:42:04.144Z,45.39
2018-03-01T08:43:04.304Z,44.16
2018-03-01T08:44:04.480Z,43.48
2018-03-01T08:45:04.647Z,43.66
2018-03-01T08:46:04.846Z,43.41
2018-03-01T08:47:04.992Z,42.93
2018-03-01T08:48:05.160Z,42.93
2018-03-01T08:49:05.351Z,42.08
2018-03-01T08:50:05.524Z,42.63
2018-03-01T08:51:05.695Z,42.84
2018-03-01T08:52:05.872Z,42.36
2018-03-01T08:53:06.028Z,41.99
2018-03-01T08:54:06.201Z,41.61
2018-03-01T08:55:06.368Z,41.71
2018-03-01T08:56:06.545Z,41.71
2018-03-01T08:57:06.714Z,41.42
2018-03-01T08:58:06.897Z,40.67
2018-03-01T08:59:07.063Z,40.95
2018-03-01T09:00:07.235Z,41.24
2018-03-01T09:01:07.411Z,40.95
2018-03-01T09:02:07.589Z,40.86
2018-03-01T09:03:07.995Z,40.22
2018-03-01T09:04:07.928Z,39.65
2018-03-01T09:05:08.100Z,39.35
2018-03-01T09:06:08.281Z,39.56
2018-03-01T09:07:08.457Z,39.28
2018-03-01T09:08:08.623Z,38.99
2018-03-01T09:09:08.796Z,38.80
2018-03-01T09:10:08.969Z,38.90
2018-03-01T09:11:09.145Z,38.52
2018-03-01T09:12:09.317Z,38.61
2018-03-01T09:13:09.740Z,37.76
2018-03-01T09:14:09.670Z,37.76
2018-03-01T09:15:09.875Z,38.33
2018-03-01T09:16:10.022Z,37.85
2018-03-01T09:17:10.183Z,37.55
2018-03-01T09:18:10.359Z,38.33
2018-03-01T09:19:10.537Z,37.67
2018-03-01T09:20:10.711Z,37.76
2018-03-01T09:21:10.885Z,36.63
2018-03-01T09:22:11.059Z,37.10
2018-03-01T09:23:11.240Z,37.10
2018-03-01T09:24:11.415Z,36.83
2018-03-01T09:25:11.589Z,36.07
2018-03-01T09:26:11.777Z,36.54
2018-03-01T09:27:11.934Z,37.01
2018-03-01T09:28:12.106Z,36.63
2018-03-01T09:29:12.279Z,36.54
2018-03-01T09:30:12.465Z,37.10
2018-03-01T09:31:12.633Z,37.38
2018-03-01T09:32:12.815Z,37.29
2018-03-01T09:33:12.980Z,37.19
2018-03-01T09:34:13.154Z,37.10
2018-03-01T09:35:13.339Z,36.55
2018-03-01T09:36:13.513Z,36.27
2018-03-01T09:37:13.700Z,36.46
2018-03-01T09:38:13.860Z,35.59
2018-03-01T09:39:14.034Z,36.16
2018-03-01T09:40:14.208Z,36.35
2018-03-01T09:41:14.388Z,36.71
2018-03-01T09:42:14.565Z,37.76
2018-03-01T09:43:14.739Z,37.67
2018-03-01T09:44:14.908Z,36.74
2018-03-01T09:45:15.084Z,36.08
2018-03-01T09:46:15.261Z,35.99
2018-03-01T09:47:15.438Z,35.80
2018-03-01T09:48:15.612Z,35.52
2018-03-01T09:49:15.807Z,34.85
2018-03-01T09:50:15.973Z,34.87
2018-03-01T09:51:16.148Z,34.02
2018-03-01T09:52:16.328Z,34.17
2018-03-01T09:53:16.501Z,36.07
2018-03-01T09:54:16.680Z,36.72
2018-03-01T09:55:16.856Z,36.72
2018-03-01T09:56:17.035Z,36.07
2018-03-01T09:57:17.202Z,36.74
2018-03-01T09:58:17.384Z,36.18
2018-03-01T09:59:17.559Z,35.88
2018-03-01T10:00:17.728Z,35.42
2018-03-01T10:01:17.907Z,34.85
2018-03-01T10:02:18.080Z,34.76
2018-03-01T10:03:18.264Z,34.19
2018-03-01T10:04:18.443Z,33.91
2018-03-01T10:05:18.611Z,35.31
2018-03-01T10:06:18.784Z,36.35
2018-03-01T10:07:18.962Z,35.99
2018-03-01T10:08:19.145Z,36.25
2018-03-01T10:09:19.313Z,36.54
2018-03-01T10:10:19.483Z,36.35
2018-03-01T10:11:19.660Z,36.07
2018-03-01T10:12:19.834Z,36.08
2018-03-01T10:13:20.022Z,35.71
2018-03-01T10:14:20.181Z,35.33
2018-03-01T10:15:20.365Z,34.76
2018-03-01T10:16:20.534Z,34.11
2018-03-01T10:17:20.720Z,34.30
2018-03-01T10:18:20.891Z,34.00
2018-03-01T10:19:21.069Z,34.13
2018-03-01T10:20:21.246Z,32.62
2018-03-01T10:21:21.423Z,32.42
2018-03-01T10:22:21.602Z,32.30
2018-03-01T10:23:22.014Z,33.07
2018-03-01T10:24:21.952Z,32.32
2018-03-01T10:25:22.139Z,32.59
2018-03-01T10:26:22.306Z,33.26
2018-03-01T10:27:22.486Z,32.87
2018-03-01T10:28:22.659Z,33.15
2018-03-01T10:29:22.844Z,33.62
2018-03-01T10:30:23.042Z,33.98
2018-03-01T10:31:23.195Z,35.04
2018-03-01T10:32:23.365Z,35.31
2018-03-01T10:33:23.783Z,35.88
2018-03-01T10:34:23.718Z,35.40
2018-03-01T10:35:23.890Z,35.42
2018-03-01T10:36:24.070Z,34.83
2018-03-01T10:37:24.245Z,35.14
2018-03-01T10:38:24.423Z,35.40
2018-03-01T10:39:24.593Z,35.12
2018-03-01T10:40:24.781Z,35.21
2018-03-01T10:41:24.950Z,35.31
2018-03-01T10:42:25.125Z,35.31
2018-03-01T10:43:25.297Z,36.07
2018-03-01T10:44:25.468Z,36.25
2018-03-01T10:45:25.639Z,36.36
2018-03-01T10:46:25.819Z,35.59
2018-03-01T10:47:25.991Z,35.50
2018-03-01T10:48:26.169Z,35.33
2018-03-01T10:49:26.353Z,35.04
2018-03-01T10:50:26.534Z,34.74
2018-03-01T10:51:26.721Z,35.88
2018-03-01T10:52:26.890Z,36.82
2018-03-01T10:53:27.064Z,37.10
2018-03-01T10:54:27.237Z,36.54
2018-03-01T10:55:27.413Z,37.19
2018-03-01T10:56:27.612Z,37.29
2018-03-01T10:57:27.763Z,36.08
2018-03-01T10:58:27.937Z,35.25
2018-03-01T10:59:28.134Z,34.68
2018-03-01T11:00:28.296Z,33.73
2018-03-01T11:01:28.473Z,32.19
2018-03-01T11:02:28.659Z,33.15
2018-03-01T11:03:28.829Z,33.15
2018-03-01T11:04:29.018Z,33.25
2018-03-01T11:05:29.183Z,33.80
2018-03-01T11:06:29.358Z,34.66
2018-03-01T11:07:29.529Z,34.28
2018-03-01T11:08:29.701Z,34.57
2018-03-01T11:09:29.870Z,34.76
2018-03-01T11:10:30.055Z,34.65
2018-03-01T11:11:30.233Z,34.85
2018-03-01T11:12:30.392Z,35.23
2018-03-01T11:13:30.582Z,35.23
2018-03-01T11:14:30.762Z,35.61
2018-03-01T11:15:30.941Z,35.33
2018-03-01T11:16:31.116Z,35.14
2018-03-01T11:17:31.299Z,34.76
2018-03-01T11:18:31.468Z,34.57
2018-03-01T11:19:31.653Z,34.59
2018-03-01T11:20:31.823Z,34.19
2018-03-01T11:21:31.994Z,34.57
2018-03-01T11:22:32.172Z,35.04
2018-03-01T11:23:32.408Z,35.42
2018-03-01T11:24:32.510Z,35.78
2018-03-01T11:25:32.686Z,35.89
2018-03-01T11:26:32.865Z,35.33
2018-03-01T11:27:33.046Z,35.44
2018-03-01T11:28:33.213Z,34.57
2018-03-01T11:29:33.385Z,34.47
2018-03-01T11:30:33.565Z,34.59
2018-03-01T11:31:33.744Z,34.02
2018-03-01T11:32:33.925Z,34.27
2018-03-01T11:33:34.101Z,34.87
2018-03-01T11:34:34.266Z,34.57
2018-03-01T11:35:34.450Z,33.83
2018-03-01T11:36:34.613Z,33.45
2018-03-01T11:37:34.791Z,33.64
2018-03-01T11:38:34.970Z,33.72
2018-03-01T11:39:35.146Z,33.72
2018-03-01T11:40:35.334Z,33.80
2018-03-01T11:41:35.514Z,34.95
2018-03-01T11:42:35.680Z,34.66
2018-03-01T11:43:35.858Z,34.02
2018-03-01T11:44:36.036Z,33.73
2018-03-01T11:45:36.214Z,33.72
2018-03-01T11:46:36.393Z,33.92
2018-03-01T11:47:36.575Z,34.00
2018-03-01T11:48:36.742Z,34.11
2018-03-01T11:49:36.918Z,33.64
2018-03-01T11:50:37.090Z,32.42
2018-03-01T11:51:37.270Z,32.13
2018-03-01T11:52:37.443Z,32.23
2018-03-01T11:53:37.625Z,32.51
2018-03-01T11:54:37.793Z,32.23
2018-03-01T11:55:37.970Z,32.13
2018-03-01T11:56:38.143Z,32.13
2018-03-01T11:57:38.323Z,32.79
2018-03-01T11:58:38.488Z,33.07
2018-03-01T11:59:38.665Z,33.64
2018-03-01T12:00:38.845Z,32.70
2018-03-01T12:01:39.024Z,32.70
2018-03-01T12:02:39.198Z,32.60
2018-03-01T12:03:39.418Z,33.26
2018-03-01T12:04:39.540Z,33.36
2018-03-01T12:05:39.725Z,33.45
2018-03-01T12:06:39.920Z,33.45
2018-03-01T12:07:40.096Z,34.10
2018-03-01T12:08:40.286Z,34.10
2018-03-01T12:09:40.444Z,34.47
2018-03-01T12:10:40.655Z,35.52
2018-03-01T12:11:40.835Z,35.99
2018-03-01T12:12:41.030Z,36.74
2018-03-01T12:13:41.186Z,36.83
2018-03-01T12:14:41.355Z,36.18
2018-03-01T12:15:41.534Z,36.07
2018-03-01T12:16:41.709Z,36.35
2018-03-01T12:17:41.886Z,37.38
2018-03-01T12:18:42.059Z,37.67
2018-03-01T12:19:42.240Z,38.42
2018-03-01T12:20:42.408Z,38.33
2018-03-01T12:21:42.567Z,39.09
2018-03-01T12:22:42.739Z,39.28
2018-03-01T12:23:42.939Z,38.99
2018-03-01T12:24:43.088Z,38.04
2018-03-01T12:25:43.315Z,37.69
2018-03-01T12:26:43.427Z,37.19
2018-03-01T12:27:43.695Z,37.19
2018-03-01T12:28:43.789Z,37.85
2018-03-01T12:29:44.008Z,38.33
2018-03-01T12:30:44.135Z,37.67
2018-03-01T12:31:44.300Z,37.76
2018-03-01T12:32:44.477Z,37.67
2018-03-01T12:33:44.675Z,37.76
2018-03-01T12:34:44.832Z,37.57
2018-03-01T12:35:45.003Z,36.55
2018-03-01T12:36:45.183Z,36.36
2018-03-01T12:37:45.389Z,36.44
2018-03-01T12:38:45.545Z,36.91
2018-03-01T12:39:45.697Z,37.85
2018-03-01T12:40:46.066Z,38.61
2018-03-01T12:41:46.669Z,38.80
2018-03-01T12:42:46.281Z,38.80
2018-03-01T12:43:46.467Z,38.61
2018-03-01T12:44:46.633Z,37.97
2018-03-01T12:45:46.798Z,37.21
2018-03-01T12:46:46.980Z,36.82
2018-03-01T12:47:47.145Z,37.10
2018-03-01T12:48:47.320Z,37.67
2018-03-01T12:49:47.500Z,38.80
2018-03-01T12:50:47.911Z,39.09
2018-03-01T12:51:47.850Z,38.99
2018-03-01T12:52:48.019Z,39.37
2018-03-01T12:53:48.208Z,38.99
2018-03-01T12:54:48.382Z,38.35
2018-03-01T12:55:48.565Z,37.97
2018-03-01T12:56:48.733Z,37.40
2018-03-01T12:57:48.912Z,37.01
2018-03-01T12:58:49.072Z,37.48
2018-03-01T12:59:49.245Z,37.67